Weather at Long Sukang Airport

Public forecast

Using degrees Celsius for public forecast. Weather courtesy of forecast.io.

Closest aviation weather report (METAR) to Long Sukang Airport

Closest report is Brunei International Airport, 41.2 nm (76.4 km) NW. Retrieved 2022/07/02 02:00 UTC (10 minutes ago):

WBSB 020200Z 07003KT 9999 FEW015 SCT140 BKN300 31/25 Q1007 NOSIG

Closest aviation forecast (TAF) to Long Sukang Airport

Closest forecast is Brunei International Airport, 41.2 nm (76.4 km) NW. Retrieved 2022-07-02 00:15 UTC (2 hours ago):

TAF WBSB 012250Z 0200/0306 20005KT 9999 FEW015 FEW016CB BECMG 0204/0206 32008KT FEW016 FEW017CB